sensor_id;sensor_type;location;lat;lon;timestamp;pressure;altitude;pressure_sealevel;temperature;humidity
46267;BME280;31998;48.798;15.066;2022-07-04T00:00:06;95883.00;;;14.35;100.00
46267;BME280;31998;48.798;15.066;2022-07-04T00:02:32;95885.56;;;14.18;100.00
46267;BME280;31998;48.798;15.066;2022-07-04T00:04:58;95886.53;;;13.99;100.00
46267;BME280;31998;48.798;15.066;2022-07-04T00:07:23;95876.63;;;13.95;100.00
46267;BME280;31998;48.798;15.066;2022-07-04T00:09:49;95879.34;;;14.17;100.00
46267;BME280;31998;48.798;15.066;2022-07-04T00:12:14;95872.88;;;14.27;100.00
46267;BME280;31998;48.798;15.066;2022-07-04T00:14:40;95885.00;;;14.29;100.00
46267;BME280;31998;48.798;15.066;2022-07-04T00:17:06;95881.78;;;14.27;100.00
46267;BME280;31998;48.798;15.066;2022-07-04T00:19:31;95872.81;;;14.40;100.00
46267;BME280;31998;48.798;15.066;2022-07-04T00:21:57;95881.94;;;14.67;100.00
46267;BME280;31998;48.798;15.066;2022-07-04T00:24:22;95871.59;;;14.47;100.00
46267;BME280;31998;48.798;15.066;2022-07-04T00:26:47;95868.75;;;14.52;100.00
46267;BME280;31998;48.798;15.066;2022-07-04T00:29:13;95864.47;;;14.28;100.00
46267;BME280;31998;48.798;15.066;2022-07-04T00:31:39;95868.31;;;14.13;100.00
46267;BME280;31998;48.798;15.066;2022-07-04T00:34:04;95860.16;;;14.05;100.00
46267;BME280;31998;48.798;15.066;2022-07-04T00:36:30;95857.69;;;13.95;100.00
46267;BME280;31998;48.798;15.066;2022-07-04T00:38:56;95865.44;;;13.88;100.00
46267;BME280;31998;48.798;15.066;2022-07-04T00:41:21;95860.53;;;13.90;100.00
46267;BME280;31998;48.798;15.066;2022-07-04T00:44:04;95856.97;;;14.03;100.00
46267;BME280;31998;48.798;15.066;2022-07-04T00:46:30;95851.56;;;14.03;100.00
46267;BME280;31998;48.798;15.066;2022-07-04T00:48:56;95854.59;;;13.88;100.00
46267;BME280;31998;48.798;15.066;2022-07-04T00:51:22;95859.25;;;13.73;100.00
46267;BME280;31998;48.798;15.066;2022-07-04T00:53:48;95847.59;;;13.87;100.00
46267;BME280;31998;48.798;15.066;2022-07-04T00:56:15;95839.59;;;13.81;100.00
46267;BME280;31998;48.798;15.066;2022-07-04T00:58:41;95838.50;;;13.82;100.00
46267;BME280;31998;48.798;15.066;2022-07-04T01:01:06;95848.59;;;13.91;100.00
46267;BME280;31998;48.798;15.066;2022-07-04T01:03:32;95846.00;;;13.85;100.00
46267;BME280;31998;48.798;15.066;2022-07-04T01:05:58;95844.41;;;13.84;100.00
46267;BME280;31998;48.798;15.066;2022-07-04T01:08:25;95835.81;;;13.82;100.00
46267;BME280;31998;48.798;15.066;2022-07-04T01:10:50;95826.00;;;13.73;100.00
46267;BME280;31998;48.798;15.066;2022-07-04T01:13:20;95824.41;;;13.72;100.00
46267;BME280;31998;48.798;15.066;2022-07-04T01:15:46;95827.44;;;13.70;100.00
46267;BME280;31998;48.798;15.066;2022-07-04T01:18:12;95842.66;;;13.66;100.00
46267;BME280;31998;48.798;15.066;2022-07-04T01:20:37;95839.06;;;13.71;100.00
46267;BME280;31998;48.798;15.066;2022-07-04T01:23:03;95835.03;;;13.68;100.00
46267;BME280;31998;48.798;15.066;2022-07-04T01:25:29;95833.38;;;13.58;100.00
46267;BME280;31998;48.798;15.066;2022-07-04T01:27:54;95829.28;;;13.47;100.00
46267;BME280;31998;48.798;15.066;2022-07-04T01:30:20;95835.28;;;13.58;100.00
46267;BME280;31998;48.798;15.066;2022-07-04T01:32:45;95835.41;;;13.75;100.00
46267;BME280;31998;48.798;15.066;2022-07-04T01:35:10;95832.22;;;13.73;100.00
46267;BME280;31998;48.798;15.066;2022-07-04T01:37:38;95836.13;;;13.67;100.00
46267;BME280;31998;48.798;15.066;2022-07-04T01:40:03;95833.78;;;13.52;100.00
46267;BME280;31998;48.798;15.066;2022-07-04T01:42:29;95834.81;;;13.42;100.00
46267;BME280;31998;48.798;15.066;2022-07-04T01:44:55;95838.06;;;13.30;100.00
46267;BME280;31998;48.798;15.066;2022-07-04T01:47:20;95846.38;;;13.20;100.00
46267;BME280;31998;48.798;15.066;2022-07-04T01:49:45;95835.16;;;13.27;100.00
46267;BME280;31998;48.798;15.066;2022-07-04T01:52:11;95834.53;;;13.44;100.00
46267;BME280;31998;48.798;15.066;2022-07-04T01:54:36;95828.59;;;13.42;100.00
46267;BME280;31998;48.798;15.066;2022-07-04T01:57:03;95827.09;;;13.36;100.00
46267;BME280;31998;48.798;15.066;2022-07-04T01:59:28;95841.94;;;13.38;100.00
46267;BME280;31998;48.798;15.066;2022-07-04T02:02:12;95828.13;;;13.40;100.00
46267;BME280;31998;48.798;15.066;2022-07-04T02:04:38;95828.38;;;13.52;100.00
46267;BME280;31998;48.798;15.066;2022-07-04T02:07:03;95824.34;;;13.63;100.00
46267;BME280;31998;48.798;15.066;2022-07-04T02:09:29;95825.44;;;13.62;100.00
46267;BME280;31998;48.798;15.066;2022-07-04T02:11:55;95829.13;;;13.44;100.00
46267;BME280;31998;48.798;15.066;2022-07-04T02:14:39;95826.72;;;13.28;100.00
46267;BME280;31998;48.798;15.066;2022-07-04T02:17:07;95820.53;;;13.14;100.00
46267;BME280;31998;48.798;15.066;2022-07-04T02:19:32;95829.53;;;13.23;100.00
46267;BME280;31998;48.798;15.066;2022-07-04T02:21:57;95826.34;;;13.21;100.00
46267;BME280;31998;48.798;15.066;2022-07-04T02:24:23;95819.41;;;13.15;100.00
46267;BME280;31998;48.798;15.066;2022-07-04T02:26:48;95820.63;;;13.09;100.00
46267;BME280;31998;48.798;15.066;2022-07-04T02:29:14;95828.13;;;13.12;100.00
46267;BME280;31998;48.798;15.066;2022-07-04T02:31:40;95827.75;;;13.05;100.00
46267;BME280;31998;48.798;15.066;2022-07-04T02:34:06;95828.34;;;13.02;100.00
46267;BME280;31998;48.798;15.066;2022-07-04T02:36:31;95842.94;;;13.01;100.00
46267;BME280;31998;48.798;15.066;2022-07-04T02:38:56;95837.53;;;13.15;100.00
46267;BME280;31998;48.798;15.066;2022-07-04T02:41:22;95833.72;;;13.29;100.00
46267;BME280;31998;48.798;15.066;2022-07-04T02:43:47;95824.91;;;13.10;100.00
46267;BME280;31998;48.798;15.066;2022-07-04T02:46:12;95836.94;;;13.32;100.00
46267;BME280;31998;48.798;15.066;2022-07-04T02:48:38;95831.94;;;13.39;100.00
46267;BME280;31998;48.798;15.066;2022-07-04T02:51:03;95834.94;;;13.23;100.00
46267;BME280;31998;48.798;15.066;2022-07-04T02:53:29;95851.13;;;13.10;100.00
46267;BME280;31998;48.798;15.066;2022-07-04T02:55:54;95842.84;;;13.06;100.00
46267;BME280;31998;48.798;15.066;2022-07-04T02:58:19;95853.16;;;13.04;100.00
46267;BME280;31998;48.798;15.066;2022-07-04T03:00:45;95863.47;;;13.02;100.00
46267;BME280;31998;48.798;15.066;2022-07-04T03:03:10;95863.97;;;13.18;100.00
46267;BME280;31998;48.798;15.066;2022-07-04T03:05:36;95867.09;;;13.25;100.00
46267;BME280;31998;48.798;15.066;2022-07-04T03:08:01;95869.16;;;13.14;100.00
46267;BME280;31998;48.798;15.066;2022-07-04T03:10:26;95864.19;;;13.21;100.00
46267;BME280;31998;48.798;15.066;2022-07-04T03:12:52;95863.28;;;13.26;100.00
46267;BME280;31998;48.798;15.066;2022-07-04T03:15:17;95869.16;;;13.14;100.00
46267;BME280;31998;48.798;15.066;2022-07-04T03:17:43;95872.56;;;13.06;100.00
46267;BME280;31998;48.798;15.066;2022-07-04T03:20:09;95874.34;;;12.97;100.00
46267;BME280;31998;48.798;15.066;2022-07-04T03:22:34;95878.78;;;13.07;100.00
46267;BME280;31998;48.798;15.066;2022-07-04T03:25:00;95874.19;;;13.21;100.00
46267;BME280;31998;48.798;15.066;2022-07-04T03:27:25;95884.97;;;13.35;100.00
46267;BME280;31998;48.798;15.066;2022-07-04T03:29:50;95877.16;;;13.47;100.00
46267;BME280;31998;48.798;15.066;2022-07-04T03:32:16;95884.53;;;13.55;100.00
46267;BME280;31998;48.798;15.066;2022-07-04T03:34:41;95881.56;;;13.43;100.00
46267;BME280;31998;48.798;15.066;2022-07-04T03:37:07;95887.19;;;13.46;100.00
46267;BME280;31998;48.798;15.066;2022-07-04T03:39:32;95886.34;;;13.60;100.00
46267;BME280;31998;48.798;15.066;2022-07-04T03:41:58;95888.63;;;13.66;100.00
46267;BME280;31998;48.798;15.066;2022-07-04T03:44:23;95889.41;;;13.80;100.00
46267;BME280;31998;48.798;15.066;2022-07-04T03:46:48;95881.97;;;13.86;100.00
46267;BME280;31998;48.798;15.066;2022-07-04T03:49:14;95881.13;;;13.99;100.00
46267;BME280;31998;48.798;15.066;2022-07-04T03:51:40;95874.00;;;14.03;100.00
46267;BME280;31998;48.798;15.066;2022-07-04T03:54:05;95874.06;;;13.90;100.00
46267;BME280;31998;48.798;15.066;2022-07-04T03:56:30;95883.19;;;13.80;100.00
46267;BME280;31998;48.798;15.066;2022-07-04T03:58:56;95886.31;;;13.73;100.00
46267;BME280;31998;48.798;15.066;2022-07-04T04:01:21;95894.81;;;13.80;100.00
46267;BME280;31998;48.798;15.066;2022-07-04T04:03:47;95892.78;;;13.86;100.00
46267;BME280;31998;48.798;15.066;2022-07-04T04:06:31;95894.28;;;13.92;100.00
46267;BME280;31998;48.798;15.066;2022-07-04T04:08:57;95884.81;;;14.03;100.00
46267;BME280;31998;48.798;15.066;2022-07-04T04:11:22;95891.91;;;14.13;100.00
46267;BME280;31998;48.798;15.066;2022-07-04T04:13:48;95894.47;;;14.18;100.00
46267;BME280;31998;48.798;15.066;2022-07-04T04:16:13;95900.75;;;14.27;100.00
46267;BME280;31998;48.798;15.066;2022-07-04T04:18:39;95906.59;;;14.43;100.00
46267;BME280;31998;48.798;15.066;2022-07-04T04:21:05;95902.31;;;14.64;100.00
46267;BME280;31998;48.798;15.066;2022-07-04T04:23:31;95899.69;;;14.82;100.00
46267;BME280;31998;48.798;15.066;2022-07-04T04:25:56;95898.34;;;15.02;100.00
46267;BME280;31998;48.798;15.066;2022-07-04T04:28:22;95900.03;;;15.20;100.00
46267;BME280;31998;48.798;15.066;2022-07-04T04:30:48;95905.00;;;15.35;100.00
46267;BME280;31998;48.798;15.066;2022-07-04T04:33:13;95898.66;;;15.48;100.00
46267;BME280;31998;48.798;15.066;2022-07-04T04:35:39;95891.50;;;15.53;100.00
46267;BME280;31998;48.798;15.066;2022-07-04T04:38:04;95892.09;;;15.50;100.00
46267;BME280;31998;48.798;15.066;2022-07-04T04:40:30;95888.13;;;15.47;100.00
46267;BME280;31998;48.798;15.066;2022-07-04T04:42:56;95885.41;;;15.56;100.00
46267;BME280;31998;48.798;15.066;2022-07-04T04:45:21;95883.06;;;15.63;100.00
46267;BME280;31998;48.798;15.066;2022-07-04T04:47:47;95892.31;;;15.70;100.00
46267;BME280;31998;48.798;15.066;2022-07-04T04:50:12;95889.16;;;15.77;100.00
46267;BME280;31998;48.798;15.066;2022-07-04T04:52:42;95901.16;;;15.85;100.00
46267;BME280;31998;48.798;15.066;2022-07-04T04:55:08;95899.88;;;15.99;100.00
46267;BME280;31998;48.798;15.066;2022-07-04T04:57:34;95899.84;;;16.17;100.00
46267;BME280;31998;48.798;15.066;2022-07-04T05:00:00;95899.84;;;16.34;100.00
46267;BME280;31998;48.798;15.066;2022-07-04T05:02:26;95906.06;;;16.52;100.00
46267;BME280;31998;48.798;15.066;2022-07-04T05:04:52;95901.44;;;16.70;100.00
46267;BME280;31998;48.798;15.066;2022-07-04T05:07:18;95903.63;;;16.85;100.00
46267;BME280;31998;48.798;15.066;2022-07-04T05:09:44;95910.97;;;16.93;100.00
46267;BME280;31998;48.798;15.066;2022-07-04T05:12:09;95907.59;;;16.96;100.00
46267;BME280;31998;48.798;15.066;2022-07-04T05:14:35;95906.59;;;17.01;100.00
46267;BME280;31998;48.798;15.066;2022-07-04T05:17:00;95913.47;;;17.07;100.00
46267;BME280;31998;48.798;15.066;2022-07-04T05:19:26;95914.47;;;17.02;100.00
46267;BME280;31998;48.798;15.066;2022-07-04T05:21:52;95927.84;;;17.07;100.00
46267;BME280;31998;48.798;15.066;2022-07-04T05:24:18;95918.41;;;17.14;100.00
46267;BME280;31998;48.798;15.066;2022-07-04T05:26:43;95924.75;;;17.26;100.00
46267;BME280;31998;48.798;15.066;2022-07-04T05:29:09;95908.25;;;17.31;100.00
46267;BME280;31998;48.798;15.066;2022-07-04T05:31:34;95913.66;;;17.40;100.00
46267;BME280;31998;48.798;15.066;2022-07-04T05:34:00;95912.06;;;17.39;100.00
46267;BME280;31998;48.798;15.066;2022-07-04T05:36:26;95919.56;;;17.42;100.00
46267;BME280;31998;48.798;15.066;2022-07-04T05:38:51;95918.44;;;17.43;100.00
46267;BME280;31998;48.798;15.066;2022-07-04T05:41:17;95934.09;;;17.46;100.00
46267;BME280;31998;48.798;15.066;2022-07-04T05:43:43;95937.31;;;17.48;100.00
46267;BME280;31998;48.798;15.066;2022-07-04T05:46:09;95942.09;;;17.51;100.00
46267;BME280;31998;48.798;15.066;2022-07-04T05:48:35;95961.28;;;17.55;100.00
46267;BME280;31998;48.798;15.066;2022-07-04T05:51:02;95971.69;;;17.53;100.00
46267;BME280;31998;48.798;15.066;2022-07-04T05:53:28;95991.53;;;17.53;100.00
46267;BME280;31998;48.798;15.066;2022-07-04T05:55:53;95992.19;;;17.50;100.00
46267;BME280;31998;48.798;15.066;2022-07-04T05:58:19;95979.72;;;17.49;100.00
46267;BME280;31998;48.798;15.066;2022-07-04T06:00:44;95979.56;;;17.54;100.00
46267;BME280;31998;48.798;15.066;2022-07-04T06:03:09;95981.44;;;17.62;100.00
46267;BME280;31998;48.798;15.066;2022-07-04T06:05:35;95999.19;;;17.60;100.00
46267;BME280;31998;48.798;15.066;2022-07-04T06:08:01;95989.13;;;17.60;100.00
46267;BME280;31998;48.798;15.066;2022-07-04T06:10:27;95978.03;;;17.66;100.00
46267;BME280;31998;48.798;15.066;2022-07-04T06:12:52;95987.66;;;17.72;100.00
46267;BME280;31998;48.798;15.066;2022-07-04T06:15:18;95989.69;;;17.83;100.00
46267;BME280;31998;48.798;15.066;2022-07-04T06:17:43;95979.81;;;18.00;100.00
46267;BME280;31998;48.798;15.066;2022-07-04T06:20:09;95977.03;;;18.08;100.00
46267;BME280;31998;48.798;15.066;2022-07-04T06:22:48;95978.78;;;18.13;100.00
46267;BME280;31998;48.798;15.066;2022-07-04T06:25:18;95978.38;;;18.23;100.00
46267;BME280;31998;48.798;15.066;2022-07-04T06:27:45;95988.56;;;18.35;100.00
46267;BME280;31998;48.798;15.066;2022-07-04T06:30:10;95985.56;;;18.49;100.00
46267;BME280;31998;48.798;15.066;2022-07-04T06:32:47;95991.25;;;18.56;100.00
46267;BME280;31998;48.798;15.066;2022-07-04T06:35:14;96000.03;;;18.61;100.00
46267;BME280;31998;48.798;15.066;2022-07-04T06:38:01;96006.72;;;18.73;100.00
46267;BME280;31998;48.798;15.066;2022-07-04T06:40:26;96014.63;;;18.65;100.00
46267;BME280;31998;48.798;15.066;2022-07-04T06:42:51;96016.16;;;18.75;100.00
46267;BME280;31998;48.798;15.066;2022-07-04T06:45:17;96004.38;;;18.83;100.00
46267;BME280;31998;48.798;15.066;2022-07-04T06:47:43;95988.00;;;18.83;100.00
46267;BME280;31998;48.798;15.066;2022-07-04T06:50:09;95983.81;;;18.86;100.00
46267;BME280;31998;48.798;15.066;2022-07-04T06:52:34;95990.53;;;18.88;100.00
46267;BME280;31998;48.798;15.066;2022-07-04T06:55:00;95988.84;;;18.96;100.00
46267;BME280;31998;48.798;15.066;2022-07-04T06:57:26;95992.16;;;19.02;100.00
46267;BME280;31998;48.798;15.066;2022-07-04T06:59:51;95991.75;;;19.12;100.00
46267;BME280;31998;48.798;15.066;2022-07-04T07:02:17;95992.91;;;19.23;100.00
46267;BME280;31998;48.798;15.066;2022-07-04T07:04:43;95981.78;;;19.40;100.00
46267;BME280;31998;48.798;15.066;2022-07-04T07:07:08;95986.03;;;19.50;100.00
46267;BME280;31998;48.798;15.066;2022-07-04T07:09:34;95990.81;;;19.53;100.00
46267;BME280;31998;48.798;15.066;2022-07-04T07:12:00;95987.41;;;19.68;100.00
46267;BME280;31998;48.798;15.066;2022-07-04T07:14:26;95988.13;;;19.77;100.00
46267;BME280;31998;48.798;15.066;2022-07-04T07:16:52;95977.41;;;19.97;98.44
46267;BME280;31998;48.798;15.066;2022-07-04T07:19:17;95976.38;;;20.01;100.00
46267;BME280;31998;48.798;15.066;2022-07-04T07:21:42;95980.00;;;20.05;95.57
46267;BME280;31998;48.798;15.066;2022-07-04T07:24:08;95982.84;;;20.21;97.72
46267;BME280;31998;48.798;15.066;2022-07-04T07:26:33;95980.75;;;20.43;100.00
46267;BME280;31998;48.798;15.066;2022-07-04T07:28:59;95976.19;;;20.47;100.00
46267;BME280;31998;48.798;15.066;2022-07-04T07:31:24;95979.63;;;20.31;93.53
46267;BME280;31998;48.798;15.066;2022-07-04T07:33:50;95985.66;;;20.49;93.51
46267;BME280;31998;48.798;15.066;2022-07-04T07:36:15;95984.72;;;20.57;96.35
46267;BME280;31998;48.798;15.066;2022-07-04T07:38:41;95980.50;;;20.60;98.80
46267;BME280;31998;48.798;15.066;2022-07-04T07:41:10;95985.50;;;20.58;100.00
46267;BME280;31998;48.798;15.066;2022-07-04T07:43:35;95984.94;;;20.65;100.00
46267;BME280;31998;48.798;15.066;2022-07-04T07:46:04;95976.47;;;20.70;100.00
46267;BME280;31998;48.798;15.066;2022-07-04T07:48:30;95987.63;;;20.77;99.69
46267;BME280;31998;48.798;15.066;2022-07-04T07:50:55;95986.34;;;20.86;100.00
46267;BME280;31998;48.798;15.066;2022-07-04T07:53:21;95984.03;;;20.89;100.00
46267;BME280;31998;48.798;15.066;2022-07-04T07:55:46;95995.63;;;20.98;100.00
46267;BME280;31998;48.798;15.066;2022-07-04T07:58:11;95990.44;;;21.08;100.00
46267;BME280;31998;48.798;15.066;2022-07-04T08:00:37;95978.03;;;21.27;100.00
46267;BME280;31998;48.798;15.066;2022-07-04T08:03:03;95974.66;;;21.46;100.00
46267;BME280;31998;48.798;15.066;2022-07-04T08:05:47;95981.81;;;21.66;97.45
46267;BME280;31998;48.798;15.066;2022-07-04T08:08:12;95964.38;;;21.74;97.58
46267;BME280;31998;48.798;15.066;2022-07-04T08:10:38;95975.84;;;21.95;97.47
46267;BME280;31998;48.798;15.066;2022-07-04T08:13:04;95960.97;;;21.97;95.45
46267;BME280;31998;48.798;15.066;2022-07-04T08:15:30;95969.13;;;22.09;93.97
46267;BME280;31998;48.798;15.066;2022-07-04T08:17:56;95968.16;;;22.17;91.52
46267;BME280;31998;48.798;15.066;2022-07-04T08:20:21;95974.88;;;22.19;87.28
46267;BME280;31998;48.798;15.066;2022-07-04T08:22:47;95979.13;;;22.36;88.46
46267;BME280;31998;48.798;15.066;2022-07-04T08:25:12;95982.34;;;22.38;83.17
46267;BME280;31998;48.798;15.066;2022-07-04T08:27:40;95971.94;;;22.67;85.56
46267;BME280;31998;48.798;15.066;2022-07-04T08:30:06;95973.34;;;22.77;86.53
46267;BME280;31998;48.798;15.066;2022-07-04T08:32:31;95975.72;;;22.59;84.52
46267;BME280;31998;48.798;15.066;2022-07-04T08:34:57;95973.13;;;22.66;88.11
46267;BME280;31998;48.798;15.066;2022-07-04T08:37:22;95968.56;;;22.73;85.74
46267;BME280;31998;48.798;15.066;2022-07-04T08:39:48;95936.13;;;22.60;83.41
46267;BME280;31998;48.798;15.066;2022-07-04T08:42:16;95952.31;;;23.04;89.72
46267;BME280;31998;48.798;15.066;2022-07-04T08:44:47;95947.00;;;23.14;79.94
46267;BME280;31998;48.798;15.066;2022-07-04T08:47:17;95940.59;;;23.07;75.67
46267;BME280;31998;48.798;15.066;2022-07-04T08:49:53;95936.22;;;23.25;71.58
46267;BME280;31998;48.798;15.066;2022-07-04T08:52:40;95928.06;;;23.51;66.12
46267;BME280;31998;48.798;15.066;2022-07-04T08:55:08;95909.44;;;23.91;71.55
46267;BME280;31998;48.798;15.066;2022-07-04T08:57:52;95915.81;;;24.25;70.09
46267;BME280;31998;48.798;15.066;2022-07-04T09:00:38;95912.25;;;24.51;65.88
46267;BME280;31998;48.798;15.066;2022-07-04T09:03:04;95911.06;;;24.82;70.61
46267;BME280;31998;48.798;15.066;2022-07-04T09:05:30;95907.81;;;25.06;66.20
46267;BME280;31998;48.798;15.066;2022-07-04T09:08:00;95914.63;;;25.64;60.18
46267;BME280;31998;48.798;15.066;2022-07-04T09:10:26;95917.75;;;25.62;62.67
46267;BME280;31998;48.798;15.066;2022-07-04T09:12:52;95913.28;;;25.43;55.03
46267;BME280;31998;48.798;15.066;2022-07-04T09:15:18;95915.03;;;25.22;52.59
46267;BME280;31998;48.798;15.066;2022-07-04T09:17:45;95912.13;;;25.48;54.48
46267;BME280;31998;48.798;15.066;2022-07-04T09:20:22;95910.69;;;25.65;54.10
46267;BME280;31998;48.798;15.066;2022-07-04T09:22:49;95903.56;;;25.60;51.57
46267;BME280;31998;48.798;15.066;2022-07-04T09:25:16;95917.41;;;25.67;52.41
46267;BME280;31998;48.798;15.066;2022-07-04T09:27:46;95917.41;;;25.67;52.08
46267;BME280;31998;48.798;15.066;2022-07-04T09:30:21;95916.34;;;25.76;51.00
46267;BME280;31998;48.798;15.066;2022-07-04T09:32:55;95920.44;;;26.00;59.84
46267;BME280;31998;48.798;15.066;2022-07-04T09:35:27;95915.75;;;26.07;54.21
46267;BME280;31998;48.798;15.066;2022-07-04T09:37:55;95920.13;;;26.12;51.73
46267;BME280;31998;48.798;15.066;2022-07-04T09:40:24;95918.88;;;26.02;54.83
46267;BME280;31998;48.798;15.066;2022-07-04T09:48:51;95910.50;;;25.88;49.53
46267;BME280;31998;48.798;15.066;2022-07-04T09:51:36;95904.66;;;26.00;51.04
46267;BME280;31998;48.798;15.066;2022-07-04T09:54:21;95903.59;;;26.15;52.98
46267;BME280;31998;48.798;15.066;2022-07-04T09:56:55;95905.59;;;26.22;52.79
46267;BME280;31998;48.798;15.066;2022-07-04T09:59:22;95906.56;;;26.51;51.58
46267;BME280;31998;48.798;15.066;2022-07-04T10:01:48;95907.84;;;26.75;52.76
46267;BME280;31998;48.798;15.066;2022-07-04T10:04:14;95909.50;;;27.01;52.64
46267;BME280;31998;48.798;15.066;2022-07-04T10:06:42;95907.56;;;27.09;54.40
46267;BME280;31998;48.798;15.066;2022-07-04T10:09:16;95912.22;;;26.90;53.44
46267;BME280;31998;48.798;15.066;2022-07-04T10:11:46;95895.91;;;26.53;50.36
46267;BME280;31998;48.798;15.066;2022-07-04T10:14:13;95903.59;;;26.19;51.37
46267;BME280;31998;48.798;15.066;2022-07-04T10:16:40;95905.97;;;26.20;53.68
46267;BME280;31998;48.798;15.066;2022-07-04T10:19:07;95903.44;;;25.94;51.84
46267;BME280;31998;48.798;15.066;2022-07-04T10:21:33;95895.78;;;25.69;53.32
46267;BME280;31998;48.798;15.066;2022-07-04T10:23:59;95900.75;;;25.53;53.14
46267;BME280;31998;48.798;15.066;2022-07-04T10:26:26;95899.38;;;25.74;53.13
46267;BME280;31998;48.798;15.066;2022-07-04T10:28:52;95897.66;;;26.10;55.18
46267;BME280;31998;48.798;15.066;2022-07-04T10:31:19;95906.47;;;26.37;53.62
46267;BME280;31998;48.798;15.066;2022-07-04T10:33:46;95910.50;;;26.50;49.07
46267;BME280;31998;48.798;15.066;2022-07-04T10:36:16;95905.41;;;26.59;49.42
46267;BME280;31998;48.798;15.066;2022-07-04T10:38:53;95906.94;;;26.53;50.39
46267;BME280;31998;48.798;15.066;2022-07-04T10:41:20;95920.44;;;26.72;50.42
46267;BME280;31998;48.798;15.066;2022-07-04T10:46:28;95915.47;;;27.17;49.81
46267;BME280;31998;48.798;15.066;2022-07-04T10:49:21;95931.63;;;27.12;48.05
46267;BME280;31998;48.798;15.066;2022-07-04T10:54:37;95921.78;;;27.18;49.49
46267;BME280;31998;48.798;15.066;2022-07-04T10:57:12;95923.41;;;27.37;53.60
46267;BME280;31998;48.798;15.066;2022-07-04T10:59:38;95925.81;;;27.52;52.09
46267;BME280;31998;48.798;15.066;2022-07-04T11:07:14;95927.66;;;27.02;48.89
46267;BME280;31998;48.798;15.066;2022-07-04T11:09:40;95926.06;;;26.97;50.21
46267;BME280;31998;48.798;15.066;2022-07-04T11:12:09;95926.81;;;26.87;47.52
46267;BME280;31998;48.798;15.066;2022-07-04T11:17:26;95917.19;;;26.49;46.71
46267;BME280;31998;48.798;15.066;2022-07-04T11:20:03;95923.59;;;26.71;53.35
46267;BME280;31998;48.798;15.066;2022-07-04T11:22:29;95924.03;;;26.76;48.02
46267;BME280;31998;48.798;15.066;2022-07-04T11:24:56;95933.03;;;26.66;50.34
46267;BME280;31998;48.798;15.066;2022-07-04T11:27:22;95924.31;;;26.50;49.81
46267;BME280;31998;48.798;15.066;2022-07-04T11:29:51;95930.59;;;26.47;50.30
46267;BME280;31998;48.798;15.066;2022-07-04T11:32:16;95920.75;;;26.53;50.25
46267;BME280;31998;48.798;15.066;2022-07-04T11:34:43;95919.63;;;26.61;49.38
46267;BME280;31998;48.798;15.066;2022-07-04T11:37:09;95929.13;;;26.67;53.82
46267;BME280;31998;48.798;15.066;2022-07-04T11:39:34;95914.28;;;27.15;52.01
46267;BME280;31998;48.798;15.066;2022-07-04T11:42:00;95907.22;;;27.56;48.28
46267;BME280;31998;48.798;15.066;2022-07-04T11:44:44;95912.00;;;27.92;47.51
46267;BME280;31998;48.798;15.066;2022-07-04T11:47:36;95898.91;;;28.03;48.37
46267;BME280;31998;48.798;15.066;2022-07-04T11:50:04;95908.00;;;27.96;45.72
46267;BME280;31998;48.798;15.066;2022-07-04T11:55:04;95912.75;;;27.46;48.92
46267;BME280;31998;48.798;15.066;2022-07-04T11:57:34;95915.13;;;27.62;54.16
46267;BME280;31998;48.798;15.066;2022-07-04T12:00:07;95918.69;;;27.48;47.81
46267;BME280;31998;48.798;15.066;2022-07-04T12:02:34;95923.03;;;27.95;59.15
46267;BME280;31998;48.798;15.066;2022-07-04T12:05:01;95905.66;;;27.88;49.40
46267;BME280;31998;48.798;15.066;2022-07-04T12:07:29;95907.25;;;27.81;49.12
46267;BME280;31998;48.798;15.066;2022-07-04T12:10:24;95908.81;;;27.97;51.28
46267;BME280;31998;48.798;15.066;2022-07-04T12:12:57;95905.66;;;27.59;47.07
46267;BME280;31998;48.798;15.066;2022-07-04T12:15:26;95906.44;;;27.95;54.32
46267;BME280;31998;48.798;15.066;2022-07-04T12:18:00;95901.31;;;27.79;45.49
46267;BME280;31998;48.798;15.066;2022-07-04T12:20:27;95904.84;;;27.48;47.69
46267;BME280;31998;48.798;15.066;2022-07-04T12:23:01;95893.78;;;27.41;51.09
46267;BME280;31998;48.798;15.066;2022-07-04T12:27:57;95887.44;;;27.97;52.09
46267;BME280;31998;48.798;15.066;2022-07-04T12:30:25;95884.66;;;28.36;52.13
46267;BME280;31998;48.798;15.066;2022-07-04T12:32:53;95880.31;;;28.18;45.77
46267;BME280;31998;48.798;15.066;2022-07-04T12:35:42;95875.94;;;28.17;47.16
46267;BME280;31998;48.798;15.066;2022-07-04T12:38:14;95880.28;;;28.35;47.98
46267;BME280;31998;48.798;15.066;2022-07-04T12:41:04;95871.94;;;28.46;44.45
46267;BME280;31998;48.798;15.066;2022-07-04T12:46:31;95871.88;;;28.64;47.39
46267;BME280;31998;48.798;15.066;2022-07-04T12:48:58;95870.81;;;28.33;46.52
46267;BME280;31998;48.798;15.066;2022-07-04T12:51:27;95882.69;;;28.16;47.22
46267;BME280;31998;48.798;15.066;2022-07-04T12:53:54;95877.47;;;28.43;47.81
46267;BME280;31998;48.798;15.066;2022-07-04T12:59:03;95875.56;;;28.18;47.30
46267;BME280;31998;48.798;15.066;2022-07-04T13:01:29;95874.03;;;27.89;46.52
46267;BME280;31998;48.798;15.066;2022-07-04T13:03:55;95881.91;;;28.11;48.78
46267;BME280;31998;48.798;15.066;2022-07-04T13:06:21;95878.69;;;28.34;50.58
46267;BME280;31998;48.798;15.066;2022-07-04T13:08:46;95885.03;;;28.38;48.70
46267;BME280;31998;48.798;15.066;2022-07-04T13:11:12;95885.84;;;28.18;47.39
46267;BME280;31998;48.798;15.066;2022-07-04T13:13:56;95895.41;;;27.92;45.84